Terminal Aerodrome Forecast
Issued by NWS

Home | Current Version | Previous Version | Text Only | Print | Product List | Glossary On
Versions: 1 2 3 4 5 6 7 8 9 10 11 12 13 14 15 16 17 18 19 20 21 22 23 24 25 26 27
123
FTUS43 KDVN 290710 AAA
TAFBRL
TAF AMD
KBRL 290710Z 2907/3006 09004KT P6SM BKN200
     FM290900 10005KT 5SM BR SCT015
     FM291400 11007KT P6SM SCT030 PROB30 2917/2921 4SM TSRA OVC035CB
     FM300200 14005KT P6SM SCT040=

USA.gov is the U.S. government's official web portal to all federal, state and local government web resources and services.